Dai2kousei — JD2542 — position and weather

sailwx.info

Track history (hours):
 
Tides and Currents Weather Stations Pressure Air Temp Water Temp Dewpoint Dewpoint Depression Visibility Wind Speed Wind Dir Waves Ship Positions

Dai2kousei

Last reported at 2015-May-21 07:23 UTC. Time now 2015-May-23 05:49 UTC.
Position N 34°60' E 139°30'.

Length 77 m; draft 4.1 m.

MMSI: 431000467.

Date/timePositionNaut miles runAvg speedWind from/ knotsBaromVisibWave heightAir tempDewpointWater temp
2015-May-21 07:23N 34°60' E 139°30'910.6
2015-May-21 06:33N 35°05' E 139°38'1110.9
2015-May-21 05:33N 35°14' E 139°46'1010.3
2015-May-21 04:33N 35°24' E 139°43'1111.2
2015-May-21 03:33N 35°30' E 139°54'5 5.2
2015-May-21 02:33N 35°28' E 140°00'0 0.0
2015-May-21 01:33N 35°28' E 140°00'0 0.0
2015-May-21 00:33N 35°28' E 140°00'0 0.0
2015-May-20 23:33N 35°28' E 140°00'2 2.1
2015-May-20 22:33N 35°30' E 139°58'0 0.0
2015-May-20 21:33N 35°30' E 139°58'0 0.0
2015-May-20 20:33N 35°30' E 139°58'0 0.0
2015-May-20 19:33N 35°30' E 139°58'0 0.0
2015-May-20 18:33N 35°30' E 139°58'0 0.0
2015-May-20 17:33N 35°30' E 139°58'0 0.1
2015-May-20 16:33N 35°30' E 139°58'0 0.0
2015-May-20 15:33N 35°30' E 139°58'0 0.1
2015-May-20 14:33N 35°30' E 139°58'0 0.1
2015-May-20 13:33N 35°30' E 139°58'3 3.2
2015-May-20 12:33N 35°29' E 139°54'7 7.4
2015-May-20 11:33N 35°22' E 139°53'0 0.1
2015-May-20 10:33N 35°22' E 139°53'0 0.0
2015-May-20 09:33N 35°22' E 139°53'0 0.0
2015-May-20 08:33N 35°22' E 139°53'0 0.0
2015-May-20 07:33N 35°22' E 139°53'0 0.0
2015-May-20 06:33N 35°22' E 139°53'0 0.0
2015-May-20 05:33N 35°22' E 139°53'0 0.0
2015-May-20 04:33N 35°22' E 139°53'0 0.0
2015-May-20 03:33N 35°22' E 139°53'0 0.0
2015-May-20 02:33N 35°22' E 139°53'0 0.0
2015-May-20 01:33N 35°22' E 139°53'0 0.0
2015-May-20 00:33N 35°22' E 139°53'0 0.0
2015-May-19 23:33N 35°22' E 139°53'0 0.0
2015-May-19 22:33N 35°22' E 139°53'0 0.0
2015-May-19 21:33N 35°22' E 139°53'2 2.4
2015-May-19 20:33N 35°23' E 139°50'0 0.1
2015-May-19 19:33N 35°23' E 139°50'0 0.0
2015-May-19 18:33N 35°23' E 139°50'0 0.0
2015-May-19 17:33N 35°23' E 139°50'0 0.0
2015-May-19 16:33N 35°23' E 139°50'0 0.0
2015-May-19 15:33N 35°23' E 139°50'0 0.0
2015-May-19 14:33N 35°23' E 139°50'0 0.0
2015-May-19 13:33N 35°23' E 139°50'0 0.1
2015-May-19 12:33N 35°23' E 139°50'0 0.1
2015-May-19 11:34N 35°23' E 139°50'7 7.4
2015-May-19 10:33N 35°17' E 139°45'1010.4
2015-May-19 09:33N 35°07' E 139°46'  
2015-May-13 09:33N 34°09' E 135°03'7 7.0
2015-May-13 08:33N 34°15' E 135°07'0 0.1
2015-May-13 07:33N 34°15' E 135°07'0 0.0
2015-May-13 06:33N 34°15' E 135°07'0 0.0
2015-May-13 05:33N 34°15' E 135°07'0 0.0
2015-May-13 04:33N 34°15' E 135°07'0 0.0
2015-May-13 03:33N 34°15' E 135°07'0 0.0
2015-May-13 02:33N 34°15' E 135°07'0 0.0
2015-May-13 01:33N 34°15' E 135°07'0 0.0
2015-May-13 00:33N 34°15' E 135°07'0 0.0
2015-May-12 23:33N 34°15' E 135°07'0 0.0
2015-May-12 22:33N 34°15' E 135°07'1 1.2
2015-May-12 21:34N 34°14' E 135°06'6 6.1
2015-May-12 20:33N 34°09' E 135°09'0 0.0
2015-May-12 19:33N 34°09' E 135°09'0 0.0
2015-May-12 18:33N 34°09' E 135°09'0 0.0
2015-May-12 17:33N 34°09' E 135°09'0 0.0
2015-May-12 16:33N 34°09' E 135°09'0 0.0
2015-May-12 15:33N 34°09' E 135°09'0 0.0
2015-May-12 14:33N 34°09' E 135°09'0 0.1
2015-May-12 13:33N 34°09' E 135°09'0 0.0
2015-May-12 12:33N 34°09' E 135°09'0 0.1
2015-May-12 11:33N 34°09' E 135°09'0 0.0
2015-May-12 10:33N 34°09' E 135°09'0 0.0
2015-May-12 09:33N 34°09' E 135°09'0 0.1
2015-May-12 08:33N 34°09' E 135°09'0 0.0
2015-May-12 07:33N 34°09' E 135°09'0 0.0
2015-May-12 06:33N 34°09' E 135°09'0 0.0
2015-May-12 05:33N 34°09' E 135°09'0 0.0
2015-May-12 04:33N 34°09' E 135°09'0 0.0
2015-May-12 03:33N 34°09' E 135°09'0 0.0
2015-May-12 02:33N 34°09' E 135°09'0 0.1
2015-May-12 01:33N 34°09' E 135°09'0 0.0
2015-May-12 00:33N 34°09' E 135°09'0 0.0
2015-May-11 23:31N 34°09' E 135°09'0 0.0
2015-May-11 22:33N 34°09' E 135°09'0 0.0
2015-May-11 21:33N 34°09' E 135°09'0 0.0
2015-May-11 20:33N 34°09' E 135°09'0 0.0
2015-May-11 19:33N 34°09' E 135°09'0 0.0
2015-May-11 18:33N 34°09' E 135°09'0 0.1
2015-May-11 17:33N 34°09' E 135°09'0 0.0
2015-May-11 16:33N 34°09' E 135°09'0 0.0
2015-May-11 15:33N 34°09' E 135°09'0 0.0
2015-May-11 14:33N 34°09' E 135°09'0 0.0
2015-May-11 13:33N 34°09' E 135°09'0 0.0
2015-May-11 12:33N 34°09' E 135°09'0 0.0
2015-May-11 11:33N 34°09' E 135°09'0 0.0
2015-May-11 10:33N 34°09' E 135°09'0 0.1
2015-May-11 09:33N 34°09' E 135°09'4 3.7
2015-May-11 08:33N 34°10' E 135°05'  
Track history (hours):
 
Tides and Currents Weather Stations Pressure Air Temp Water Temp Dewpoint Dewpoint Depression Visibility Wind Speed Wind Dir Waves Ship Positions

Dai2kousei

Last reported at 2015-May-21 07:23 UTC. Time now 2015-May-23 05:49 UTC.
Position N 34°60' E 139°30'.

Length 77 m; draft 4.1 m.

MMSI: 431000467.

Date/timePositionNaut miles runAvg speedWind from/ knotsBaromVisibWave heightAir tempDewpointWater temp
2015-May-21 07:23N 34°60' E 139°30'910.6
2015-May-21 06:33N 35°05' E 139°38'1110.9
2015-May-21 05:33N 35°14' E 139°46'1010.3
2015-May-21 04:33N 35°24' E 139°43'1111.2
2015-May-21 03:33N 35°30' E 139°54'5 5.2
2015-May-21 02:33N 35°28' E 140°00'0 0.0
2015-May-21 01:33N 35°28' E 140°00'0 0.0
2015-May-21 00:33N 35°28' E 140°00'0 0.0
2015-May-20 23:33N 35°28' E 140°00'2 2.1
2015-May-20 22:33N 35°30' E 139°58'0 0.0
2015-May-20 21:33N 35°30' E 139°58'0 0.0
2015-May-20 20:33N 35°30' E 139°58'0 0.0
2015-May-20 19:33N 35°30' E 139°58'0 0.0
2015-May-20 18:33N 35°30' E 139°58'0 0.0
2015-May-20 17:33N 35°30' E 139°58'0 0.1
2015-May-20 16:33N 35°30' E 139°58'0 0.0
2015-May-20 15:33N 35°30' E 139°58'0 0.1
2015-May-20 14:33N 35°30' E 139°58'0 0.1
2015-May-20 13:33N 35°30' E 139°58'3 3.2
2015-May-20 12:33N 35°29' E 139°54'7 7.4
2015-May-20 11:33N 35°22' E 139°53'0 0.1
2015-May-20 10:33N 35°22' E 139°53'0 0.0
2015-May-20 09:33N 35°22' E 139°53'0 0.0
2015-May-20 08:33N 35°22' E 139°53'0 0.0
2015-May-20 07:33N 35°22' E 139°53'0 0.0
2015-May-20 06:33N 35°22' E 139°53'0 0.0
2015-May-20 05:33N 35°22' E 139°53'0 0.0
2015-May-20 04:33N 35°22' E 139°53'0 0.0
2015-May-20 03:33N 35°22' E 139°53'0 0.0
2015-May-20 02:33N 35°22' E 139°53'0 0.0
2015-May-20 01:33N 35°22' E 139°53'0 0.0
2015-May-20 00:33N 35°22' E 139°53'0 0.0
2015-May-19 23:33N 35°22' E 139°53'0 0.0
2015-May-19 22:33N 35°22' E 139°53'0 0.0
2015-May-19 21:33N 35°22' E 139°53'2 2.4
2015-May-19 20:33N 35°23' E 139°50'0 0.1
2015-May-19 19:33N 35°23' E 139°50'0 0.0
2015-May-19 18:33N 35°23' E 139°50'0 0.0
2015-May-19 17:33N 35°23' E 139°50'0 0.0
2015-May-19 16:33N 35°23' E 139°50'0 0.0
2015-May-19 15:33N 35°23' E 139°50'0 0.0
2015-May-19 14:33N 35°23' E 139°50'0 0.0
2015-May-19 13:33N 35°23' E 139°50'0 0.1
2015-May-19 12:33N 35°23' E 139°50'0 0.1
2015-May-19 11:34N 35°23' E 139°50'7 7.4
2015-May-19 10:33N 35°17' E 139°45'1010.4
2015-May-19 09:33N 35°07' E 139°46'  
2015-May-13 09:33N 34°09' E 135°03'7 7.0
2015-May-13 08:33N 34°15' E 135°07'0 0.1
2015-May-13 07:33N 34°15' E 135°07'0 0.0
2015-May-13 06:33N 34°15' E 135°07'0 0.0
2015-May-13 05:33N 34°15' E 135°07'0 0.0
2015-May-13 04:33N 34°15' E 135°07'0 0.0
2015-May-13 03:33N 34°15' E 135°07'0 0.0
2015-May-13 02:33N 34°15' E 135°07'0 0.0
2015-May-13 01:33N 34°15' E 135°07'0 0.0
2015-May-13 00:33N 34°15' E 135°07'0 0.0
2015-May-12 23:33N 34°15' E 135°07'0 0.0
2015-May-12 22:33N 34°15' E 135°07'1 1.2
2015-May-12 21:34N 34°14' E 135°06'6 6.1
2015-May-12 20:33N 34°09' E 135°09'0 0.0
2015-May-12 19:33N 34°09' E 135°09'0 0.0
2015-May-12 18:33N 34°09' E 135°09'0 0.0
2015-May-12 17:33N 34°09' E 135°09'0 0.0
2015-May-12 16:33N 34°09' E 135°09'0 0.0
2015-May-12 15:33N 34°09' E 135°09'0 0.0
2015-May-12 14:33N 34°09' E 135°09'0 0.1
2015-May-12 13:33N 34°09' E 135°09'0 0.0
2015-May-12 12:33N 34°09' E 135°09'0 0.1
2015-May-12 11:33N 34°09' E 135°09'0 0.0
2015-May-12 10:33N 34°09' E 135°09'0 0.0
2015-May-12 09:33N 34°09' E 135°09'0 0.1
2015-May-12 08:33N 34°09' E 135°09'0 0.0
2015-May-12 07:33N 34°09' E 135°09'0 0.0
2015-May-12 06:33N 34°09' E 135°09'0 0.0
2015-May-12 05:33N 34°09' E 135°09'0 0.0
2015-May-12 04:33N 34°09' E 135°09'0 0.0
2015-May-12 03:33N 34°09' E 135°09'0 0.0
2015-May-12 02:33N 34°09' E 135°09'0 0.1
2015-May-12 01:33N 34°09' E 135°09'0 0.0
2015-May-12 00:33N 34°09' E 135°09'0 0.0
2015-May-11 23:31N 34°09' E 135°09'0 0.0
2015-May-11 22:33N 34°09' E 135°09'0 0.0
2015-May-11 21:33N 34°09' E 135°09'0 0.0
2015-May-11 20:33N 34°09' E 135°09'0 0.0
2015-May-11 19:33N 34°09' E 135°09'0 0.0
2015-May-11 18:33N 34°09' E 135°09'0 0.1
2015-May-11 17:33N 34°09' E 135°09'0 0.0
2015-May-11 16:33N 34°09' E 135°09'0 0.0
2015-May-11 15:33N 34°09' E 135°09'0 0.0
2015-May-11 14:33N 34°09' E 135°09'0 0.0
2015-May-11 13:33N 34°09' E 135°09'0 0.0
2015-May-11 12:33N 34°09' E 135°09'0 0.0
2015-May-11 11:33N 34°09' E 135°09'0 0.0
2015-May-11 10:33N 34°09' E 135°09'0 0.1
2015-May-11 09:33N 34°09' E 135°09'4 3.7
2015-May-11 08:33N 34°10' E 135°05'  

Dump ship's entire track history